createdAt,value
2023-04-07T00:03:15.031Z,-0.65
2023-04-07T00:08:18.479Z,-0.72
2023-04-07T00:13:21.756Z,-0.82
2023-04-07T00:18:26.662Z,-0.74
2023-04-07T00:23:30.250Z,-0.81
2023-04-07T00:28:33.457Z,-0.91
2023-04-07T00:33:37.998Z,-1.01
2023-04-07T00:38:41.203Z,-0.93
2023-04-07T00:43:44.628Z,-0.94
2023-04-07T00:48:49.694Z,-1.01
2023-04-07T00:53:53.609Z,-1.08
2023-04-07T00:58:57.075Z,-1.10
2023-04-07T01:04:06.767Z,-1.19
2023-04-07T01:09:17.844Z,-1.24
2023-04-07T01:14:22.294Z,-1.36
2023-04-07T01:19:39.134Z,-1.36
2023-04-07T01:24:59.971Z,-1.40
2023-04-07T01:30:06.135Z,-1.45
2023-04-07T01:35:13.534Z,-1.47
2023-04-07T01:40:17.668Z,-1.43
2023-04-07T01:45:23.364Z,-1.58
2023-04-07T01:50:28.012Z,-1.53
2023-04-07T01:55:31.459Z,-1.65
2023-04-07T02:00:42.768Z,-1.66
2023-04-07T02:05:53.531Z,-1.68
2023-04-07T02:10:59.888Z,-1.71
2023-04-07T02:16:10.800Z,-1.76
2023-04-07T02:21:16.013Z,-1.82
2023-04-07T02:26:22.106Z,-1.86
2023-04-07T02:31:26.901Z,-1.86
2023-04-07T02:36:30.192Z,-1.89
2023-04-07T02:41:33.396Z,-1.99
2023-04-07T02:46:37.973Z,-2.03
2023-04-07T02:51:41.373Z,-2.09
2023-04-07T02:56:44.851Z,-2.06
2023-04-07T03:01:49.441Z,-2.19
2023-04-07T03:06:53.297Z,-2.20
2023-04-07T03:11:57.072Z,-2.35
2023-04-07T03:17:02.651Z,-2.38
2023-04-07T03:22:06.795Z,-2.31
2023-04-07T03:27:13.238Z,-2.28
2023-04-07T03:32:23.599Z,-2.29
2023-04-07T03:37:27.071Z,-2.35
2023-04-07T03:42:32.083Z,-2.38
2023-04-07T03:47:41.961Z,-2.39
2023-04-07T03:52:47.217Z,-2.42
2023-04-07T03:57:59.510Z,-2.48
2023-04-07T04:03:08.894Z,-2.60
2023-04-07T04:08:17.309Z,-2.51
2023-04-07T04:13:20.751Z,-2.58
2023-04-07T04:18:25.811Z,-2.63
2023-04-07T04:23:31.111Z,-2.53
2023-04-07T04:28:35.734Z,-2.54
2023-04-07T04:33:43.024Z,-2.57
2023-04-07T04:38:46.835Z,-2.65
2023-04-07T04:43:53.142Z,-2.56
2023-04-07T04:49:01.484Z,-2.49
2023-04-07T04:54:06.454Z,-2.61
2023-04-07T04:59:10.455Z,-2.42
2023-04-07T05:04:29.204Z,-2.37
2023-04-07T05:09:44.256Z,-2.34
2023-04-07T05:14:47.699Z,-2.27
2023-04-07T05:19:52.500Z,-2.12
2023-04-07T05:25:09.186Z,-1.90
2023-04-07T05:30:13.859Z,-1.76
2023-04-07T05:35:18.889Z,-1.63
2023-04-07T05:40:28.018Z,-1.66
2023-04-07T05:45:33.857Z,-1.43
2023-04-07T05:50:38.957Z,-1.27
2023-04-07T05:55:46.851Z,-1.03
2023-04-07T06:01:09.904Z,-0.82
2023-04-07T06:06:16.468Z,-0.77
2023-04-07T06:11:21.672Z,-0.60
2023-04-07T06:16:24.949Z,0.21
2023-04-07T06:21:30.901Z,0.62
2023-04-07T06:26:35.120Z,1.41
2023-04-07T06:31:38.678Z,1.96
2023-04-07T06:36:43.583Z,2.97
2023-04-07T06:41:47.055Z,3.91
2023-04-07T06:46:53.281Z,4.92
2023-04-07T06:51:57.976Z,5.61
2023-04-07T06:57:01.660Z,6.14
2023-04-07T07:02:05.103Z,6.81
2023-04-07T07:07:10.067Z,8.03
2023-04-07T07:12:15.320Z,8.68
2023-04-07T07:17:18.528Z,8.59
2023-04-07T07:22:23.192Z,8.78
2023-04-07T07:27:27.158Z,9.01
2023-04-07T07:32:30.550Z,9.24
2023-04-07T07:37:35.854Z,9.34
2023-04-07T07:42:39.586Z,9.73
2023-04-07T07:47:43.113Z,9.94
2023-04-07T07:52:47.896Z,10.36
2023-04-07T07:57:51.140Z,10.55
2023-04-07T08:02:54.404Z,10.43
2023-04-07T08:08:00.173Z,11.11
2023-04-07T08:13:03.556Z,10.66
2023-04-07T08:18:07.289Z,10.81
2023-04-07T08:23:12.155Z,11.23
2023-04-07T08:28:16.124Z,11.58
2023-04-07T08:33:19.553Z,10.70
2023-04-07T08:38:24.192Z,10.92
2023-04-07T08:43:28.628Z,10.93
2023-04-07T08:48:34.221Z,11.91
2023-04-07T08:53:44.490Z,11.89
2023-04-07T08:58:48.980Z,12.02
2023-04-07T09:03:53.057Z,11.84
2023-04-07T09:08:57.875Z,11.62
2023-04-07T09:14:01.817Z,12.14
2023-04-07T09:19:05.478Z,12.51
2023-04-07T09:24:22.460Z,12.04
2023-04-07T09:29:25.772Z,11.62
2023-04-07T09:34:30.928Z,12.08
2023-04-07T09:39:35.736Z,12.44
2023-04-07T09:44:41.722Z,12.41
2023-04-07T09:49:53.741Z,12.72
2023-04-07T09:54:58.719Z,12.74
2023-04-07T10:00:02.241Z,12.43
2023-04-07T10:05:16.272Z,11.97
2023-04-07T10:10:21.005Z,12.10
2023-04-07T10:15:24.688Z,12.76
2023-04-07T10:20:29.797Z,12.22
2023-04-07T10:25:54.133Z,12.75
2023-04-07T10:30:58.222Z,11.58
2023-04-07T10:36:06.212Z,12.44
2023-04-07T10:41:36.565Z,12.92
2023-04-07T10:47:05.222Z,11.81
2023-04-07T10:52:24.570Z,12.60
2023-04-07T10:57:29.401Z,13.08
2023-04-07T11:02:36.862Z,13.22
2023-04-07T11:07:50.250Z,13.26
2023-04-07T11:13:07.415Z,13.94
2023-04-07T11:18:19.425Z,13.15
2023-04-07T11:23:25.541Z,13.89
2023-04-07T11:28:30.735Z,14.36
2023-04-07T11:33:37.051Z,14.57
2023-04-07T11:38:40.436Z,14.19
2023-04-07T11:43:45.133Z,14.26
2023-04-07T11:48:48.700Z,13.99
2023-04-07T11:53:57.304Z,14.20
2023-04-07T11:59:02.728Z,13.88
2023-04-07T12:04:06.278Z,14.78
2023-04-07T12:09:29.682Z,13.35
2023-04-07T12:14:34.301Z,13.66
2023-04-07T12:19:39.480Z,13.99
2023-04-07T12:24:43.227Z,14.73
2023-04-07T12:29:51.120Z,15.05
2023-04-07T12:34:54.360Z,14.12
2023-04-07T12:39:57.632Z,14.35
2023-04-07T12:45:03.205Z,14.01
2023-04-07T12:50:07.352Z,13.58
2023-04-07T12:55:11.048Z,13.65
2023-04-07T13:00:20.123Z,13.11
2023-04-07T13:05:23.964Z,14.13
2023-04-07T13:10:27.330Z,13.99
2023-04-07T13:15:32.277Z,14.40
2023-04-07T13:20:37.528Z,13.61
2023-04-07T13:25:41.400Z,14.32
2023-04-07T13:30:46.412Z,13.66
2023-04-07T13:35:49.743Z,13.07
2023-04-07T13:40:56.114Z,12.93
2023-04-07T13:46:00.924Z,13.92
2023-04-07T13:51:04.490Z,13.47
2023-04-07T13:56:08.658Z,13.80
2023-04-07T14:01:13.319Z,13.36
2023-04-07T14:06:16.536Z,13.67
2023-04-07T14:11:20.340Z,13.85
2023-04-07T14:16:27.838Z,13.72
2023-04-07T14:21:31.469Z,13.71
2023-04-07T14:26:34.698Z,13.64
2023-04-07T14:31:39.472Z,13.47
2023-04-07T14:36:43.209Z,13.46
2023-04-07T14:41:47.808Z,13.02
2023-04-07T14:46:53.509Z,13.44
2023-04-07T14:52:00.481Z,13.29
2023-04-07T14:57:04.417Z,13.00
2023-04-07T15:02:09.988Z,13.20
2023-04-07T15:07:13.504Z,12.85
2023-04-07T15:12:16.730Z,13.15
2023-04-07T15:17:27.560Z,12.83
2023-04-07T15:22:36.768Z,12.83
2023-04-07T15:27:40.450Z,12.89
2023-04-07T15:32:58.002Z,12.47
2023-04-07T15:38:01.577Z,12.41
2023-04-07T15:43:06.736Z,12.22
2023-04-07T15:48:11.892Z,11.96
2023-04-07T15:53:15.338Z,12.15
2023-04-07T15:58:18.681Z,11.76
2023-04-07T16:03:23.649Z,11.47
2023-04-07T16:08:27.326Z,11.17
2023-04-07T16:13:30.656Z,11.20
2023-04-07T16:18:35.290Z,11.11
2023-04-07T16:23:38.568Z,11.10
2023-04-07T16:28:44.299Z,11.00
2023-04-07T16:33:50.886Z,10.88
2023-04-07T16:38:54.141Z,10.72
2023-04-07T16:43:57.333Z,10.47
2023-04-07T16:49:09.376Z,10.50
2023-04-07T16:54:14.318Z,10.34
2023-04-07T16:59:17.623Z,10.47
2023-04-07T17:04:25.213Z,10.13
2023-04-07T17:09:28.518Z,10.02
2023-04-07T17:14:32.131Z,10.02
2023-04-07T17:19:36.831Z,9.90
2023-04-07T17:24:42.454Z,9.89
2023-04-07T17:29:45.618Z,9.52
2023-04-07T17:34:50.548Z,9.31
2023-04-07T17:39:53.933Z,9.07
2023-04-07T17:44:57.897Z,8.86
2023-04-07T17:50:03.215Z,8.50
2023-04-07T17:55:10.506Z,8.29
2023-04-07T18:00:14.536Z,8.18
2023-04-07T18:05:20.029Z,7.90
2023-04-07T18:10:23.514Z,7.64
2023-04-07T18:15:29.069Z,7.18
2023-04-07T18:20:33.781Z,6.84
2023-04-07T18:25:37.055Z,6.62
2023-04-07T18:30:44.073Z,6.43
2023-04-07T18:35:48.603Z,6.22
2023-04-07T18:40:53.595Z,5.58
2023-04-07T18:45:59.298Z,5.61
2023-04-07T18:51:06.918Z,5.08
2023-04-07T18:56:18.580Z,5.03
2023-04-07T19:01:29.832Z,5.01
2023-04-07T19:06:37.367Z,4.67
2023-04-07T19:11:43.903Z,4.59
2023-04-07T19:16:47.485Z,4.32
2023-04-07T19:21:57.757Z,4.22
2023-04-07T19:27:01.867Z,4.02
2023-04-07T19:32:07.758Z,3.73
2023-04-07T19:37:16.535Z,3.33
2023-04-07T19:42:20.314Z,3.39
2023-04-07T19:47:23.838Z,3.15
2023-04-07T19:52:32.135Z,3.25
2023-04-07T19:57:35.922Z,3.18
2023-04-07T20:02:41.984Z,3.03
2023-04-07T20:07:55.658Z,2.72
2023-04-07T20:12:59.540Z,2.53
2023-04-07T20:18:04.215Z,2.56
2023-04-07T20:23:09.681Z,2.55
2023-04-07T20:28:14.068Z,2.26
2023-04-07T20:33:17.363Z,2.20
2023-04-07T20:38:22.354Z,2.31
2023-04-07T20:43:25.667Z,2.06
2023-04-07T20:48:29.002Z,2.07
2023-04-07T20:53:33.632Z,2.07
2023-04-07T20:58:37.302Z,2.10
2023-04-07T21:03:40.683Z,2.00
2023-04-07T21:08:46.124Z,2.08
2023-04-07T21:13:49.372Z,2.04
2023-04-07T21:18:55.678Z,1.72
2023-04-07T21:24:00.450Z,1.87
2023-04-07T21:29:03.875Z,1.98
2023-04-07T21:34:07.374Z,2.03
2023-04-07T21:39:12.611Z,1.99
2023-04-07T21:44:19.871Z,2.18
2023-04-07T21:49:25.391Z,2.12
2023-04-07T21:54:30.023Z,2.17
2023-04-07T21:59:33.115Z,2.30
2023-04-07T22:04:37.401Z,2.43
2023-04-07T22:09:42.173Z,2.58
2023-04-07T22:14:45.759Z,2.61
2023-04-07T22:19:49.043Z,2.69
2023-04-07T22:24:53.837Z,2.72
2023-04-07T22:29:57.088Z,2.83
2023-04-07T22:35:00.360Z,2.82
2023-04-07T22:40:05.751Z,2.91
2023-04-07T22:45:10.173Z,2.80
2023-04-07T22:50:13.522Z,2.85
2023-04-07T22:55:18.270Z,2.92
2023-04-07T23:00:22.296Z,3.09
2023-04-07T23:05:25.563Z,3.11
2023-04-07T23:10:31.660Z,3.11
2023-04-07T23:15:35.755Z,2.99
2023-04-07T23:20:38.765Z,3.16
2023-04-07T23:25:43.393Z,3.19
2023-04-07T23:30:46.885Z,3.24
2023-04-07T23:35:50.179Z,3.30
2023-04-07T23:40:55.379Z,3.27
2023-04-07T23:45:58.818Z,3.27
2023-04-07T23:51:02.083Z,3.17
2023-04-07T23:56:07.103Z,3.25
